Aviation Digital Data Service (ADDS)

Output produced by METARs form (2354 UTC 18 July 2018)
found at http://www.aviationweather.gov/adds/metars/
 
LHPR 182315Z AUTO 34016G26KT 9999 -SHRA FEW034 OVC049 19/16 Q1012 RESHRA RMK BLU
LHPR 182245Z AUTO 35017KT 320V020 9999 RA BKN043 19/16 Q1012 RMK BLU
LHPR 182215Z AUTO 34015G28KT CAVOK 21/14 Q1012 RMK BLU
LHPR 182145Z AUTO 34015KT CAVOK 21/14 Q1012 RMK BLU
LHPR 182115Z AUTO 33014KT CAVOK 21/15 Q1012 RMK BLU
LHPR 182045Z AUTO 34016KT 320V020 9999 -SHRA NSC 21/15 Q1011 RMK BLU
LHPR 182015Z AUTO 33013KT 290V360 9999 -SHRA NSC 20/15 Q1011 RMK BLU
LHPR 181945Z AUTO 33015KT 290V350 9999 -SHRA NSC 20/15 Q1011 RMK BLU
LHPR 181915Z AUTO 32013KT 290V350 9999 -SHRA NSC 20/15 Q1011 RMK BLU
LHPR 181845Z AUTO 31010KT CAVOK 19/16 Q1011 RMK BLU
LHPR 181815Z AUTO 33017KT 290V350 9999 -RA NSC 19/16 Q1011 RMK BLU